Terminal Aerodrome Forecast
Issued by NWS Twin Cities, MN

Home | Current Version | Previous Version | Graphics & Text | Print | Product List | Glossary On
Versions: 1 2 3 4 5 6 7 8 9 10 11 12 13 14 15 16 17 18 19 20 21
000
FTUS43 KMPX 180500
TAFEAU
TAF
KEAU 180529Z 1806/1906 14005KT P6SM FEW010 SCT020
     FM180900 16006KT 6SM BR VCSH OVC008
     FM181600 19007KT P6SM BKN015 BKN040
     FM181900 21005KT P6SM -SHRA SCT015 OVC040
     FM190200 18004KT 4SM -DZ BR OVC015=

USA.gov is the U.S. government's official web portal to all federal, state and local government web resources and services.